sensor_id;sensor_type;location;lat;lon;timestamp;P1;durP1;ratioP1;P2;durP2;ratioP2
20814;SDS011;10568;48.176;16.316;2023-02-28T00:00:39;6.70;;;3.23;;
20814;SDS011;10568;48.176;16.316;2023-02-28T00:03:05;7.67;;;3.17;;
20814;SDS011;10568;48.176;16.316;2023-02-28T00:05:31;7.73;;;3.77;;
20814;SDS011;10568;48.176;16.316;2023-02-28T00:07:58;5.57;;;3.33;;
20814;SDS011;10568;48.176;16.316;2023-02-28T00:10:25;6.13;;;3.37;;
20814;SDS011;10568;48.176;16.316;2023-02-28T00:12:54;7.03;;;4.13;;
20814;SDS011;10568;48.176;16.316;2023-02-28T00:15:22;7.43;;;3.57;;
20814;SDS011;10568;48.176;16.316;2023-02-28T00:17:48;5.27;;;2.83;;
20814;SDS011;10568;48.176;16.316;2023-02-28T00:20:15;5.43;;;3.30;;
20814;SDS011;10568;48.176;16.316;2023-02-28T00:22:42;4.90;;;3.23;;
20814;SDS011;10568;48.176;16.316;2023-02-28T00:25:10;5.33;;;3.27;;
20814;SDS011;10568;48.176;16.316;2023-02-28T00:27:38;6.87;;;3.57;;
20814;SDS011;10568;48.176;16.316;2023-02-28T00:30:05;6.97;;;3.73;;
20814;SDS011;10568;48.176;16.316;2023-02-28T00:32:33;5.90;;;2.93;;
20814;SDS011;10568;48.176;16.316;2023-02-28T00:34:59;7.67;;;4.17;;
20814;SDS011;10568;48.176;16.316;2023-02-28T00:37:25;7.53;;;3.90;;
20814;SDS011;10568;48.176;16.316;2023-02-28T00:39:51;7.60;;;4.63;;
20814;SDS011;10568;48.176;16.316;2023-02-28T00:42:17;9.30;;;4.03;;
20814;SDS011;10568;48.176;16.316;2023-02-28T00:44:43;7.23;;;3.73;;
20814;SDS011;10568;48.176;16.316;2023-02-28T00:47:08;6.13;;;3.77;;
20814;SDS011;10568;48.176;16.316;2023-02-28T00:49:34;7.10;;;4.23;;
20814;SDS011;10568;48.176;16.316;2023-02-28T00:52:00;5.70;;;2.93;;
20814;SDS011;10568;48.176;16.316;2023-02-28T00:54:26;8.43;;;3.70;;
20814;SDS011;10568;48.176;16.316;2023-02-28T00:56:52;5.73;;;3.83;;
20814;SDS011;10568;48.176;16.316;2023-02-28T00:59:26;9.30;;;4.20;;
20814;SDS011;10568;48.176;16.316;2023-02-28T01:04:46;7.50;;;3.80;;
20814;SDS011;10568;48.176;16.316;2023-02-28T01:07:12;8.37;;;4.23;;
20814;SDS011;10568;48.176;16.316;2023-02-28T01:09:39;7.30;;;3.90;;
20814;SDS011;10568;48.176;16.316;2023-02-28T01:12:06;5.40;;;3.43;;
20814;SDS011;10568;48.176;16.316;2023-02-28T01:14:33;7.43;;;4.07;;
20814;SDS011;10568;48.176;16.316;2023-02-28T01:16:59;5.10;;;3.30;;
20814;SDS011;10568;48.176;16.316;2023-02-28T01:19:26;5.27;;;3.73;;
20814;SDS011;10568;48.176;16.316;2023-02-28T01:21:52;6.47;;;4.13;;
20814;SDS011;10568;48.176;16.316;2023-02-28T01:24:18;5.97;;;3.60;;
20814;SDS011;10568;48.176;16.316;2023-02-28T01:26:44;8.30;;;4.07;;
20814;SDS011;10568;48.176;16.316;2023-02-28T01:29:10;7.63;;;4.80;;
20814;SDS011;10568;48.176;16.316;2023-02-28T01:31:35;7.93;;;4.03;;
20814;SDS011;10568;48.176;16.316;2023-02-28T01:34:02;8.37;;;4.17;;
20814;SDS011;10568;48.176;16.316;2023-02-28T01:36:28;12.67;;;5.27;;
20814;SDS011;10568;48.176;16.316;2023-02-28T01:38:54;7.43;;;4.33;;
20814;SDS011;10568;48.176;16.316;2023-02-28T01:41:26;6.50;;;3.67;;
20814;SDS011;10568;48.176;16.316;2023-02-28T01:46:28;7.47;;;4.30;;
20814;SDS011;10568;48.176;16.316;2023-02-28T01:51:32;12.17;;;3.93;;
20814;SDS011;10568;48.176;16.316;2023-02-28T01:54:01;7.97;;;4.60;;
20814;SDS011;10568;48.176;16.316;2023-02-28T01:56:30;7.10;;;4.20;;
20814;SDS011;10568;48.176;16.316;2023-02-28T01:59:01;7.87;;;3.77;;
20814;SDS011;10568;48.176;16.316;2023-02-28T02:04:37;8.03;;;3.87;;
20814;SDS011;10568;48.176;16.316;2023-02-28T02:07:09;5.23;;;3.67;;
20814;SDS011;10568;48.176;16.316;2023-02-28T02:09:37;9.07;;;4.07;;
20814;SDS011;10568;48.176;16.316;2023-02-28T02:12:10;7.93;;;3.47;;
20814;SDS011;10568;48.176;16.316;2023-02-28T02:17:56;7.17;;;3.63;;
20814;SDS011;10568;48.176;16.316;2023-02-28T02:23:51;6.63;;;4.00;;
20814;SDS011;10568;48.176;16.316;2023-02-28T02:29:14;5.70;;;3.40;;
20814;SDS011;10568;48.176;16.316;2023-02-28T02:34:41;8.47;;;3.77;;
20814;SDS011;10568;48.176;16.316;2023-02-28T02:39:44;7.30;;;4.27;;
20814;SDS011;10568;48.176;16.316;2023-02-28T02:42:28;6.43;;;3.43;;
20814;SDS011;10568;48.176;16.316;2023-02-28T02:45:18;7.30;;;4.20;;
20814;SDS011;10568;48.176;16.316;2023-02-28T02:47:59;7.20;;;3.83;;
20814;SDS011;10568;48.176;16.316;2023-02-28T02:50:29;5.50;;;3.03;;
20814;SDS011;10568;48.176;16.316;2023-02-28T02:53:02;7.97;;;4.40;;
20814;SDS011;10568;48.176;16.316;2023-02-28T02:55:30;8.23;;;3.80;;
20814;SDS011;10568;48.176;16.316;2023-02-28T02:58:01;7.87;;;3.33;;
20814;SDS011;10568;48.176;16.316;2023-02-28T03:00:32;5.33;;;3.53;;
20814;SDS011;10568;48.176;16.316;2023-02-28T03:03:00;5.80;;;3.80;;
20814;SDS011;10568;48.176;16.316;2023-02-28T03:05:33;7.47;;;3.53;;
20814;SDS011;10568;48.176;16.316;2023-02-28T03:08:14;8.60;;;3.97;;
20814;SDS011;10568;48.176;16.316;2023-02-28T03:10:41;5.97;;;3.80;;
20814;SDS011;10568;48.176;16.316;2023-02-28T03:13:34;9.30;;;4.30;;
20814;SDS011;10568;48.176;16.316;2023-02-28T03:30:05;4.90;;;3.53;;
20814;SDS011;10568;48.176;16.316;2023-02-28T03:35:09;6.87;;;4.03;;
20814;SDS011;10568;48.176;16.316;2023-02-28T03:37:38;5.97;;;4.23;;
20814;SDS011;10568;48.176;16.316;2023-02-28T03:40:12;9.77;;;3.90;;
20814;SDS011;10568;48.176;16.316;2023-02-28T03:42:45;7.60;;;3.83;;
20814;SDS011;10568;48.176;16.316;2023-02-28T03:45:18;8.77;;;3.80;;
20814;SDS011;10568;48.176;16.316;2023-02-28T03:47:52;7.70;;;3.93;;
20814;SDS011;10568;48.176;16.316;2023-02-28T03:55:43;6.20;;;3.43;;
20814;SDS011;10568;48.176;16.316;2023-02-28T04:01:15;7.20;;;3.80;;
20814;SDS011;10568;48.176;16.316;2023-02-28T04:03:49;6.73;;;4.07;;
20814;SDS011;10568;48.176;16.316;2023-02-28T04:06:16;9.20;;;4.60;;
20814;SDS011;10568;48.176;16.316;2023-02-28T04:08:45;7.17;;;4.30;;
20814;SDS011;10568;48.176;16.316;2023-02-28T04:13:59;10.07;;;4.00;;
20814;SDS011;10568;48.176;16.316;2023-02-28T04:16:26;8.50;;;3.67;;
20814;SDS011;10568;48.176;16.316;2023-02-28T04:18:52;8.40;;;3.80;;
20814;SDS011;10568;48.176;16.316;2023-02-28T04:21:18;11.43;;;4.57;;
20814;SDS011;10568;48.176;16.316;2023-02-28T04:23:47;7.90;;;3.87;;
20814;SDS011;10568;48.176;16.316;2023-02-28T04:26:12;9.20;;;4.20;;
20814;SDS011;10568;48.176;16.316;2023-02-28T04:28:38;8.30;;;3.97;;
20814;SDS011;10568;48.176;16.316;2023-02-28T04:31:04;6.57;;;3.67;;
20814;SDS011;10568;48.176;16.316;2023-02-28T04:33:31;7.73;;;4.27;;
20814;SDS011;10568;48.176;16.316;2023-02-28T04:36:01;7.43;;;5.07;;
20814;SDS011;10568;48.176;16.316;2023-02-28T04:38:29;7.07;;;4.00;;
20814;SDS011;10568;48.176;16.316;2023-02-28T04:41:00;7.63;;;3.83;;
20814;SDS011;10568;48.176;16.316;2023-02-28T04:43:27;6.33;;;4.13;;
20814;SDS011;10568;48.176;16.316;2023-02-28T04:45:54;9.73;;;4.10;;
20814;SDS011;10568;48.176;16.316;2023-02-28T04:48:25;7.00;;;3.63;;
20814;SDS011;10568;48.176;16.316;2023-02-28T04:50:52;6.47;;;4.00;;
20814;SDS011;10568;48.176;16.316;2023-02-28T04:53:18;9.03;;;4.40;;
20814;SDS011;10568;48.176;16.316;2023-02-28T04:55:45;7.90;;;3.97;;
20814;SDS011;10568;48.176;16.316;2023-02-28T04:58:11;7.40;;;4.00;;
20814;SDS011;10568;48.176;16.316;2023-02-28T05:00:37;8.07;;;4.00;;
20814;SDS011;10568;48.176;16.316;2023-02-28T05:03:03;9.17;;;5.27;;
20814;SDS011;10568;48.176;16.316;2023-02-28T05:05:29;5.27;;;3.80;;
20814;SDS011;10568;48.176;16.316;2023-02-28T05:07:55;10.33;;;4.73;;
20814;SDS011;10568;48.176;16.316;2023-02-28T05:10:36;7.03;;;3.70;;
20814;SDS011;10568;48.176;16.316;2023-02-28T05:13:02;8.43;;;4.50;;
20814;SDS011;10568;48.176;16.316;2023-02-28T05:15:27;8.67;;;4.37;;
20814;SDS011;10568;48.176;16.316;2023-02-28T05:17:53;7.93;;;4.97;;
20814;SDS011;10568;48.176;16.316;2023-02-28T05:20:19;6.77;;;4.43;;
20814;SDS011;10568;48.176;16.316;2023-02-28T05:22:46;8.57;;;4.20;;
20814;SDS011;10568;48.176;16.316;2023-02-28T05:25:16;7.27;;;4.20;;
20814;SDS011;10568;48.176;16.316;2023-02-28T05:27:43;8.90;;;4.10;;
20814;SDS011;10568;48.176;16.316;2023-02-28T05:30:11;6.93;;;4.83;;
20814;SDS011;10568;48.176;16.316;2023-02-28T05:32:37;9.77;;;4.53;;
20814;SDS011;10568;48.176;16.316;2023-02-28T05:35:04;6.97;;;4.30;;
20814;SDS011;10568;48.176;16.316;2023-02-28T05:37:31;7.60;;;4.43;;
20814;SDS011;10568;48.176;16.316;2023-02-28T05:39:56;7.10;;;3.63;;
20814;SDS011;10568;48.176;16.316;2023-02-28T05:42:22;7.93;;;4.63;;
20814;SDS011;10568;48.176;16.316;2023-02-28T05:44:48;9.37;;;5.43;;
20814;SDS011;10568;48.176;16.316;2023-02-28T05:47:14;6.47;;;4.50;;
20814;SDS011;10568;48.176;16.316;2023-02-28T05:49:41;8.87;;;4.93;;
20814;SDS011;10568;48.176;16.316;2023-02-28T05:52:07;8.43;;;5.17;;
20814;SDS011;10568;48.176;16.316;2023-02-28T05:54:32;7.53;;;4.27;;
20814;SDS011;10568;48.176;16.316;2023-02-28T05:56:58;7.50;;;4.23;;
20814;SDS011;10568;48.176;16.316;2023-02-28T05:59:24;7.47;;;4.43;;
20814;SDS011;10568;48.176;16.316;2023-02-28T06:01:50;11.23;;;5.00;;
20814;SDS011;10568;48.176;16.316;2023-02-28T06:04:18;7.73;;;4.00;;
20814;SDS011;10568;48.176;16.316;2023-02-28T06:06:46;6.03;;;4.17;;
20814;SDS011;10568;48.176;16.316;2023-02-28T06:09:12;7.23;;;4.10;;
20814;SDS011;10568;48.176;16.316;2023-02-28T06:11:38;7.93;;;4.53;;
20814;SDS011;10568;48.176;16.316;2023-02-28T06:14:04;6.40;;;4.37;;
20814;SDS011;10568;48.176;16.316;2023-02-28T06:16:31;9.70;;;4.53;;
20814;SDS011;10568;48.176;16.316;2023-02-28T06:18:59;9.30;;;5.53;;
20814;SDS011;10568;48.176;16.316;2023-02-28T06:21:27;10.43;;;5.80;;
20814;SDS011;10568;48.176;16.316;2023-02-28T06:23:55;7.47;;;4.47;;
20814;SDS011;10568;48.176;16.316;2023-02-28T06:26:23;11.07;;;5.10;;
20814;SDS011;10568;48.176;16.316;2023-02-28T06:28:49;6.63;;;4.37;;
20814;SDS011;10568;48.176;16.316;2023-02-28T06:31:16;9.87;;;5.03;;
20814;SDS011;10568;48.176;16.316;2023-02-28T06:33:43;7.73;;;4.70;;
20814;SDS011;10568;48.176;16.316;2023-02-28T06:36:10;15.10;;;5.40;;
20814;SDS011;10568;48.176;16.316;2023-02-28T06:38:36;5.83;;;3.60;;
20814;SDS011;10568;48.176;16.316;2023-02-28T06:41:03;13.10;;;4.37;;
20814;SDS011;10568;48.176;16.316;2023-02-28T06:43:32;8.33;;;4.97;;
20814;SDS011;10568;48.176;16.316;2023-02-28T06:46:00;7.90;;;5.17;;
20814;SDS011;10568;48.176;16.316;2023-02-28T06:48:27;9.77;;;5.27;;
20814;SDS011;10568;48.176;16.316;2023-02-28T06:51:06;7.10;;;4.57;;
20814;SDS011;10568;48.176;16.316;2023-02-28T06:53:34;9.27;;;4.97;;
20814;SDS011;10568;48.176;16.316;2023-02-28T06:56:03;7.60;;;4.50;;
20814;SDS011;10568;48.176;16.316;2023-02-28T06:58:34;9.50;;;5.40;;
20814;SDS011;10568;48.176;16.316;2023-02-28T07:01:00;9.07;;;4.83;;
20814;SDS011;10568;48.176;16.316;2023-02-28T07:03:26;6.00;;;4.50;;
20814;SDS011;10568;48.176;16.316;2023-02-28T07:05:52;10.37;;;4.73;;
20814;SDS011;10568;48.176;16.316;2023-02-28T07:08:18;9.80;;;5.03;;
20814;SDS011;10568;48.176;16.316;2023-02-28T07:10:44;9.10;;;4.73;;
20814;SDS011;10568;48.176;16.316;2023-02-28T07:13:10;11.00;;;5.50;;
20814;SDS011;10568;48.176;16.316;2023-02-28T07:15:36;10.77;;;5.27;;
20814;SDS011;10568;48.176;16.316;2023-02-28T07:18:02;10.93;;;5.87;;
20814;SDS011;10568;48.176;16.316;2023-02-28T07:20:28;6.77;;;4.60;;
20814;SDS011;10568;48.176;16.316;2023-02-28T07:22:55;9.17;;;4.67;;
20814;SDS011;10568;48.176;16.316;2023-02-28T07:25:25;9.90;;;5.57;;
20814;SDS011;10568;48.176;16.316;2023-02-28T07:27:51;8.67;;;4.90;;
20814;SDS011;10568;48.176;16.316;2023-02-28T07:30:18;8.30;;;5.17;;
20814;SDS011;10568;48.176;16.316;2023-02-28T07:32:44;8.53;;;4.83;;
20814;SDS011;10568;48.176;16.316;2023-02-28T07:35:11;9.33;;;5.83;;
20814;SDS011;10568;48.176;16.316;2023-02-28T07:37:37;10.40;;;5.17;;
20814;SDS011;10568;48.176;16.316;2023-02-28T07:40:03;14.80;;;5.63;;
20814;SDS011;10568;48.176;16.316;2023-02-28T07:42:36;10.67;;;5.23;;
20814;SDS011;10568;48.176;16.316;2023-02-28T07:45:02;10.00;;;5.80;;
20814;SDS011;10568;48.176;16.316;2023-02-28T07:47:29;10.93;;;5.57;;
20814;SDS011;10568;48.176;16.316;2023-02-28T07:49:55;13.13;;;6.20;;
20814;SDS011;10568;48.176;16.316;2023-02-28T07:52:22;8.97;;;6.23;;
20814;SDS011;10568;48.176;16.316;2023-02-28T07:54:51;10.70;;;5.73;;
20814;SDS011;10568;48.176;16.316;2023-02-28T07:57:17;10.87;;;6.10;;
20814;SDS011;10568;48.176;16.316;2023-02-28T07:59:43;12.13;;;6.83;;
20814;SDS011;10568;48.176;16.316;2023-02-28T08:02:16;13.03;;;6.80;;
20814;SDS011;10568;48.176;16.316;2023-02-28T08:04:43;12.07;;;6.50;;
20814;SDS011;10568;48.176;16.316;2023-02-28T08:07:09;13.10;;;6.37;;
20814;SDS011;10568;48.176;16.316;2023-02-28T08:09:38;15.60;;;6.47;;
20814;SDS011;10568;48.176;16.316;2023-02-28T08:12:07;11.00;;;5.70;;
20814;SDS011;10568;48.176;16.316;2023-02-28T08:14:34;13.37;;;6.17;;
20814;SDS011;10568;48.176;16.316;2023-02-28T08:17:00;12.80;;;6.60;;
20814;SDS011;10568;48.176;16.316;2023-02-28T08:19:27;11.63;;;6.70;;
20814;SDS011;10568;48.176;16.316;2023-02-28T08:21:53;12.60;;;6.17;;
20814;SDS011;10568;48.176;16.316;2023-02-28T08:24:19;9.47;;;5.67;;
20814;SDS011;10568;48.176;16.316;2023-02-28T08:26:45;13.80;;;6.90;;
20814;SDS011;10568;48.176;16.316;2023-02-28T08:29:10;12.53;;;6.40;;
20814;SDS011;10568;48.176;16.316;2023-02-28T08:31:36;11.17;;;6.13;;
20814;SDS011;10568;48.176;16.316;2023-02-28T08:34:09;13.43;;;5.90;;
20814;SDS011;10568;48.176;16.316;2023-02-28T08:36:36;10.63;;;5.47;;
20814;SDS011;10568;48.176;16.316;2023-02-28T08:39:02;11.77;;;6.57;;
20814;SDS011;10568;48.176;16.316;2023-02-28T08:41:29;11.30;;;5.90;;
20814;SDS011;10568;48.176;16.316;2023-02-28T08:43:55;9.93;;;6.27;;
20814;SDS011;10568;48.176;16.316;2023-02-28T08:46:21;9.10;;;6.27;;
20814;SDS011;10568;48.176;16.316;2023-02-28T08:48:50;12.50;;;6.87;;
20814;SDS011;10568;48.176;16.316;2023-02-28T08:51:18;14.40;;;6.20;;
20814;SDS011;10568;48.176;16.316;2023-02-28T08:53:47;11.10;;;6.37;;
20814;SDS011;10568;48.176;16.316;2023-02-28T08:56:15;12.87;;;6.20;;
20814;SDS011;10568;48.176;16.316;2023-02-28T08:58:44;12.27;;;5.87;;
20814;SDS011;10568;48.176;16.316;2023-02-28T09:01:12;11.50;;;5.80;;
20814;SDS011;10568;48.176;16.316;2023-02-28T09:03:43;11.80;;;6.27;;
20814;SDS011;10568;48.176;16.316;2023-02-28T09:06:11;10.27;;;5.37;;
20814;SDS011;10568;48.176;16.316;2023-02-28T09:08:37;14.83;;;6.20;;
20814;SDS011;10568;48.176;16.316;2023-02-28T09:11:03;11.43;;;5.73;;
20814;SDS011;10568;48.176;16.316;2023-02-28T09:13:29;12.70;;;6.10;;
20814;SDS011;10568;48.176;16.316;2023-02-28T09:15:58;14.33;;;7.27;;
20814;SDS011;10568;48.176;16.316;2023-02-28T09:18:25;10.70;;;6.33;;
20814;SDS011;10568;48.176;16.316;2023-02-28T09:20:51;12.30;;;5.73;;
20814;SDS011;10568;48.176;16.316;2023-02-28T09:23:17;11.87;;;6.43;;
20814;SDS011;10568;48.176;16.316;2023-02-28T09:25:47;10.53;;;4.97;;
20814;SDS011;10568;48.176;16.316;2023-02-28T09:28:14;9.90;;;6.23;;
20814;SDS011;10568;48.176;16.316;2023-02-28T09:30:41;11.03;;;6.20;;
20814;SDS011;10568;48.176;16.316;2023-02-28T09:33:09;11.50;;;6.37;;
20814;SDS011;10568;48.176;16.316;2023-02-28T09:35:35;11.90;;;6.73;;
20814;SDS011;10568;48.176;16.316;2023-02-28T09:38:02;12.90;;;6.93;;
20814;SDS011;10568;48.176;16.316;2023-02-28T09:40:29;8.50;;;5.40;;
20814;SDS011;10568;48.176;16.316;2023-02-28T09:42:55;11.40;;;6.23;;
20814;SDS011;10568;48.176;16.316;2023-02-28T09:47:54;11.63;;;5.60;;
20814;SDS011;10568;48.176;16.316;2023-02-28T09:53:02;10.17;;;6.47;;
20814;SDS011;10568;48.176;16.316;2023-02-28T09:55:55;10.37;;;5.50;;
20814;SDS011;10568;48.176;16.316;2023-02-28T09:58:38;8.50;;;5.53;;
20814;SDS011;10568;48.176;16.316;2023-02-28T10:06:30;11.07;;;6.30;;
20814;SDS011;10568;48.176;16.316;2023-02-28T10:09:03;11.17;;;6.23;;
20814;SDS011;10568;48.176;16.316;2023-02-28T10:11:34;11.60;;;6.23;;
20814;SDS011;10568;48.176;16.316;2023-02-28T10:14:11;11.17;;;6.70;;
20814;SDS011;10568;48.176;16.316;2023-02-28T10:21:55;11.63;;;6.47;;
20814;SDS011;10568;48.176;16.316;2023-02-28T10:24:35;10.20;;;6.30;;
20814;SDS011;10568;48.176;16.316;2023-02-28T10:27:15;11.63;;;6.40;;
20814;SDS011;10568;48.176;16.316;2023-02-28T10:29:47;10.80;;;6.43;;
20814;SDS011;10568;48.176;16.316;2023-02-28T10:32:15;11.37;;;6.60;;
20814;SDS011;10568;48.176;16.316;2023-02-28T10:34:43;11.43;;;6.17;;
20814;SDS011;10568;48.176;16.316;2023-02-28T10:37:09;11.23;;;7.10;;
20814;SDS011;10568;48.176;16.316;2023-02-28T10:39:42;10.77;;;6.27;;
20814;SDS011;10568;48.176;16.316;2023-02-28T10:45:13;10.87;;;6.63;;
20814;SDS011;10568;48.176;16.316;2023-02-28T10:47:49;11.43;;;6.67;;
20814;SDS011;10568;48.176;16.316;2023-02-28T10:56:23;11.47;;;5.53;;
20814;SDS011;10568;48.176;16.316;2023-02-28T10:59:02;10.83;;;5.87;;
20814;SDS011;10568;48.176;16.316;2023-02-28T11:01:44;11.80;;;7.17;;
20814;SDS011;10568;48.176;16.316;2023-02-28T11:09:28;9.23;;;6.33;;
20814;SDS011;10568;48.176;16.316;2023-02-28T11:12:04;10.23;;;6.17;;
20814;SDS011;10568;48.176;16.316;2023-02-28T11:14:49;9.70;;;6.60;;
20814;SDS011;10568;48.176;16.316;2023-02-28T11:17:27;10.13;;;5.97;;
20814;SDS011;10568;48.176;16.316;2023-02-28T11:19:58;12.90;;;6.13;;
20814;SDS011;10568;48.176;16.316;2023-02-28T11:22:32;10.47;;;6.57;;
20814;SDS011;10568;48.176;16.316;2023-02-28T11:25:06;9.50;;;6.13;;
20814;SDS011;10568;48.176;16.316;2023-02-28T11:35:52;10.47;;;6.57;;
20814;SDS011;10568;48.176;16.316;2023-02-28T11:38:24;11.87;;;6.67;;
20814;SDS011;10568;48.176;16.316;2023-02-28T11:51:48;9.53;;;5.93;;
20814;SDS011;10568;48.176;16.316;2023-02-28T11:57:15;12.33;;;6.90;;
20814;SDS011;10568;48.176;16.316;2023-02-28T12:05:44;9.77;;;6.20;;
20814;SDS011;10568;48.176;16.316;2023-02-28T12:08:23;10.60;;;6.10;;
20814;SDS011;10568;48.176;16.316;2023-02-28T12:13:43;12.47;;;6.83;;
20814;SDS011;10568;48.176;16.316;2023-02-28T12:21:46;9.77;;;5.43;;
20814;SDS011;10568;48.176;16.316;2023-02-28T12:27:01;9.60;;;6.20;;
20814;SDS011;10568;48.176;16.316;2023-02-28T12:29:32;11.03;;;6.70;;
20814;SDS011;10568;48.176;16.316;2023-02-28T12:32:13;9.10;;;6.23;;
20814;SDS011;10568;48.176;16.316;2023-02-28T12:34:49;10.13;;;6.17;;
20814;SDS011;10568;48.176;16.316;2023-02-28T12:37:24;10.60;;;6.13;;
20814;SDS011;10568;48.176;16.316;2023-02-28T12:39:56;11.07;;;6.27;;
20814;SDS011;10568;48.176;16.316;2023-02-28T12:42:31;8.87;;;5.80;;
20814;SDS011;10568;48.176;16.316;2023-02-28T12:45:05;8.70;;;5.50;;
20814;SDS011;10568;48.176;16.316;2023-02-28T12:47:34;8.87;;;5.67;;
20814;SDS011;10568;48.176;16.316;2023-02-28T12:50:02;9.17;;;5.73;;
20814;SDS011;10568;48.176;16.316;2023-02-28T12:52:56;8.63;;;5.70;;
20814;SDS011;10568;48.176;16.316;2023-02-28T13:03:41;8.03;;;4.60;;
20814;SDS011;10568;48.176;16.316;2023-02-28T13:09:17;8.93;;;5.13;;
20814;SDS011;10568;48.176;16.316;2023-02-28T13:11:45;7.80;;;4.70;;
20814;SDS011;10568;48.176;16.316;2023-02-28T13:14:29;6.40;;;4.10;;
20814;SDS011;10568;48.176;16.316;2023-02-28T13:17:02;7.97;;;4.80;;
20814;SDS011;10568;48.176;16.316;2023-02-28T13:19:32;9.60;;;5.07;;
20814;SDS011;10568;48.176;16.316;2023-02-28T13:22:01;8.33;;;5.33;;
20814;SDS011;10568;48.176;16.316;2023-02-28T13:29:40;8.77;;;5.17;;
20814;SDS011;10568;48.176;16.316;2023-02-28T13:34:39;8.73;;;4.67;;
20814;SDS011;10568;48.176;16.316;2023-02-28T13:50:21;7.13;;;4.80;;
20814;SDS011;10568;48.176;16.316;2023-02-28T13:55:26;7.90;;;4.90;;
20814;SDS011;10568;48.176;16.316;2023-02-28T13:58:12;9.33;;;5.27;;
20814;SDS011;10568;48.176;16.316;2023-02-28T14:00:49;8.10;;;4.77;;
20814;SDS011;10568;48.176;16.316;2023-02-28T14:06:49;7.77;;;4.60;;
20814;SDS011;10568;48.176;16.316;2023-02-28T14:09:20;9.07;;;4.73;;
20814;SDS011;10568;48.176;16.316;2023-02-28T14:11:49;8.20;;;4.63;;
20814;SDS011;10568;48.176;16.316;2023-02-28T14:16:59;6.17;;;3.97;;
20814;SDS011;10568;48.176;16.316;2023-02-28T14:19:37;8.33;;;4.90;;
20814;SDS011;10568;48.176;16.316;2023-02-28T14:30:24;9.37;;;5.07;;
20814;SDS011;10568;48.176;16.316;2023-02-28T14:41:38;8.17;;;5.10;;
20814;SDS011;10568;48.176;16.316;2023-02-28T14:44:39;6.87;;;5.13;;
20814;SDS011;10568;48.176;16.316;2023-02-28T14:47:02;9.70;;;4.97;;
20814;SDS011;10568;48.176;16.316;2023-02-28T14:49:32;6.47;;;4.60;;
20814;SDS011;10568;48.176;16.316;2023-02-28T14:54:51;7.47;;;5.47;;
20814;SDS011;10568;48.176;16.316;2023-02-28T14:57:23;8.47;;;4.23;;
20814;SDS011;10568;48.176;16.316;2023-02-28T15:00:02;9.17;;;5.17;;
20814;SDS011;10568;48.176;16.316;2023-02-28T15:02:39;7.87;;;4.83;;
20814;SDS011;10568;48.176;16.316;2023-02-28T15:07:35;7.80;;;5.00;;
20814;SDS011;10568;48.176;16.316;2023-02-28T15:12:34;9.53;;;5.67;;
20814;SDS011;10568;48.176;16.316;2023-02-28T15:15:00;8.87;;;5.47;;
20814;SDS011;10568;48.176;16.316;2023-02-28T15:17:26;7.17;;;5.10;;
20814;SDS011;10568;48.176;16.316;2023-02-28T15:19:53;10.43;;;5.30;;
20814;SDS011;10568;48.176;16.316;2023-02-28T15:22:27;8.40;;;5.07;;
20814;SDS011;10568;48.176;16.316;2023-02-28T15:25:00;8.17;;;5.03;;
20814;SDS011;10568;48.176;16.316;2023-02-28T15:27:31;7.87;;;5.47;;
20814;SDS011;10568;48.176;16.316;2023-02-28T15:30:08;8.60;;;5.20;;
20814;SDS011;10568;48.176;16.316;2023-02-28T15:32:42;7.57;;;5.33;;
20814;SDS011;10568;48.176;16.316;2023-02-28T15:35:26;8.70;;;5.17;;
20814;SDS011;10568;48.176;16.316;2023-02-28T15:37:56;9.27;;;5.33;;
20814;SDS011;10568;48.176;16.316;2023-02-28T15:40:43;7.83;;;5.30;;
20814;SDS011;10568;48.176;16.316;2023-02-28T15:43:39;8.37;;;5.60;;
20814;SDS011;10568;48.176;16.316;2023-02-28T15:46:11;8.07;;;5.10;;
20814;SDS011;10568;48.176;16.316;2023-02-28T15:48:51;6.50;;;4.40;;
20814;SDS011;10568;48.176;16.316;2023-02-28T15:51:22;8.37;;;5.07;;
20814;SDS011;10568;48.176;16.316;2023-02-28T15:53:59;13.53;;;5.57;;
20814;SDS011;10568;48.176;16.316;2023-02-28T15:56:28;10.47;;;5.87;;
20814;SDS011;10568;48.176;16.316;2023-02-28T15:59:01;8.17;;;5.13;;
20814;SDS011;10568;48.176;16.316;2023-02-28T16:01:31;9.50;;;5.63;;
20814;SDS011;10568;48.176;16.316;2023-02-28T16:04:03;10.27;;;6.23;;
20814;SDS011;10568;48.176;16.316;2023-02-28T16:06:37;10.93;;;5.77;;
20814;SDS011;10568;48.176;16.316;2023-02-28T16:09:08;10.17;;;5.83;;
20814;SDS011;10568;48.176;16.316;2023-02-28T16:11:43;11.40;;;6.17;;
20814;SDS011;10568;48.176;16.316;2023-02-28T16:14:13;9.40;;;5.97;;
20814;SDS011;10568;48.176;16.316;2023-02-28T16:16:42;10.07;;;6.23;;
20814;SDS011;10568;48.176;16.316;2023-02-28T16:19:12;10.00;;;5.80;;
20814;SDS011;10568;48.176;16.316;2023-02-28T16:21:38;10.90;;;6.00;;
20814;SDS011;10568;48.176;16.316;2023-02-28T16:24:04;9.60;;;6.10;;
20814;SDS011;10568;48.176;16.316;2023-02-28T16:26:32;9.77;;;6.40;;
20814;SDS011;10568;48.176;16.316;2023-02-28T16:28:59;7.83;;;5.47;;
20814;SDS011;10568;48.176;16.316;2023-02-28T16:31:26;7.70;;;5.33;;
20814;SDS011;10568;48.176;16.316;2023-02-28T16:33:53;8.67;;;5.20;;
20814;SDS011;10568;48.176;16.316;2023-02-28T16:36:22;7.93;;;5.47;;
20814;SDS011;10568;48.176;16.316;2023-02-28T16:38:51;8.60;;;5.57;;
20814;SDS011;10568;48.176;16.316;2023-02-28T16:41:19;9.27;;;5.17;;
20814;SDS011;10568;48.176;16.316;2023-02-28T16:43:53;9.40;;;5.97;;
20814;SDS011;10568;48.176;16.316;2023-02-28T16:46:27;8.20;;;5.57;;
20814;SDS011;10568;48.176;16.316;2023-02-28T16:48:56;8.47;;;5.93;;
20814;SDS011;10568;48.176;16.316;2023-02-28T16:51:22;11.47;;;6.23;;
20814;SDS011;10568;48.176;16.316;2023-02-28T16:53:48;9.23;;;6.17;;
20814;SDS011;10568;48.176;16.316;2023-02-28T16:56:15;8.70;;;5.83;;
20814;SDS011;10568;48.176;16.316;2023-02-28T16:58:44;8.47;;;5.50;;
20814;SDS011;10568;48.176;16.316;2023-02-28T17:01:11;8.10;;;5.37;;
20814;SDS011;10568;48.176;16.316;2023-02-28T17:03:37;10.90;;;5.50;;
20814;SDS011;10568;48.176;16.316;2023-02-28T17:06:08;8.47;;;6.13;;
20814;SDS011;10568;48.176;16.316;2023-02-28T17:08:49;8.77;;;6.20;;
20814;SDS011;10568;48.176;16.316;2023-02-28T17:11:16;10.20;;;5.53;;
20814;SDS011;10568;48.176;16.316;2023-02-28T17:13:43;8.83;;;5.50;;
20814;SDS011;10568;48.176;16.316;2023-02-28T17:16:29;10.47;;;6.97;;
20814;SDS011;10568;48.176;16.316;2023-02-28T17:18:58;10.80;;;6.27;;
20814;SDS011;10568;48.176;16.316;2023-02-28T17:21:25;10.23;;;5.93;;
20814;SDS011;10568;48.176;16.316;2023-02-28T17:23:52;11.27;;;6.07;;
20814;SDS011;10568;48.176;16.316;2023-02-28T17:26:18;13.77;;;6.13;;
20814;SDS011;10568;48.176;16.316;2023-02-28T17:28:46;9.50;;;6.00;;
20814;SDS011;10568;48.176;16.316;2023-02-28T17:31:13;11.70;;;6.40;;
20814;SDS011;10568;48.176;16.316;2023-02-28T17:33:40;11.47;;;6.27;;
20814;SDS011;10568;48.176;16.316;2023-02-28T17:36:08;9.80;;;5.90;;
20814;SDS011;10568;48.176;16.316;2023-02-28T17:38:40;10.60;;;5.77;;
20814;SDS011;10568;48.176;16.316;2023-02-28T17:41:07;9.43;;;5.67;;
20814;SDS011;10568;48.176;16.316;2023-02-28T17:43:37;11.30;;;6.50;;
20814;SDS011;10568;48.176;16.316;2023-02-28T17:48:53;12.70;;;6.17;;
20814;SDS011;10568;48.176;16.316;2023-02-28T17:51:20;9.67;;;5.90;;
20814;SDS011;10568;48.176;16.316;2023-02-28T17:53:47;11.63;;;5.90;;
20814;SDS011;10568;48.176;16.316;2023-02-28T17:56:21;12.63;;;6.20;;